createdAt,value
2023-05-09T00:00:31.012Z,10.66
2023-05-09T00:02:57.426Z,10.63
2023-05-09T00:05:23.821Z,10.57
2023-05-09T00:07:50.206Z,10.54
2023-05-09T00:10:16.801Z,10.50
2023-05-09T00:12:43.755Z,10.48
2023-05-09T00:15:10.462Z,10.44
2023-05-09T00:17:38.511Z,10.44
2023-05-09T00:20:09.059Z,10.39
2023-05-09T00:22:35.419Z,10.33
2023-05-09T00:25:01.741Z,10.34
2023-05-09T00:27:30.602Z,10.25
2023-05-09T00:29:57.102Z,10.23
2023-05-09T00:32:23.445Z,10.23
2023-05-09T00:34:50.260Z,10.21
2023-05-09T00:37:18.905Z,10.17
2023-05-09T00:39:45.945Z,10.10
2023-05-09T00:42:12.304Z,10.07
2023-05-09T00:44:38.657Z,10.03
2023-05-09T00:47:05.314Z,9.95
2023-05-09T00:49:32.100Z,9.89
2023-05-09T00:51:58.876Z,9.86
2023-05-09T00:54:25.470Z,9.86
2023-05-09T00:56:51.805Z,9.80
2023-05-09T00:59:18.875Z,9.77
2023-05-09T01:01:46.292Z,9.75
2023-05-09T01:04:14.005Z,9.70
2023-05-09T01:06:57.881Z,9.70
2023-05-09T01:09:32.692Z,9.65
2023-05-09T01:12:22.223Z,9.64
2023-05-09T01:15:02.239Z,9.53
2023-05-09T01:17:36.718Z,9.45
2023-05-09T01:20:14.307Z,9.46
2023-05-09T01:22:45.269Z,9.39
2023-05-09T01:25:24.276Z,9.33
2023-05-09T01:27:50.582Z,9.30
2023-05-09T01:30:17.214Z,9.27
2023-05-09T01:32:46.106Z,9.25
2023-05-09T01:35:14.472Z,9.22
2023-05-09T01:37:42.351Z,9.20
2023-05-09T01:40:16.672Z,9.13
2023-05-09T01:42:45.430Z,9.04
2023-05-09T01:45:13.945Z,8.99
2023-05-09T01:47:41.584Z,8.88
2023-05-09T01:50:09.265Z,8.87
2023-05-09T01:52:36.237Z,8.87
2023-05-09T01:55:02.713Z,8.83
2023-05-09T01:57:30.168Z,8.81
2023-05-09T01:59:57.605Z,8.77
2023-05-09T02:02:26.203Z,8.71
2023-05-09T02:04:55.314Z,8.62
2023-05-09T02:07:22.844Z,8.57
2023-05-09T02:09:49.981Z,8.54
2023-05-09T02:12:16.901Z,8.45
2023-05-09T02:14:43.539Z,8.45
2023-05-09T02:17:11.351Z,8.47
2023-05-09T02:19:37.686Z,8.48
2023-05-09T02:22:05.128Z,8.48
2023-05-09T02:24:32.773Z,8.47
2023-05-09T02:26:59.798Z,8.43
2023-05-09T02:29:28.797Z,8.39
2023-05-09T02:31:55.222Z,8.31
2023-05-09T02:34:21.698Z,8.27
2023-05-09T02:36:48.311Z,8.28
2023-05-09T02:39:14.771Z,8.29
2023-05-09T02:41:47.703Z,8.22
2023-05-09T02:44:14.057Z,8.27
2023-05-09T02:46:40.652Z,8.30
2023-05-09T02:49:06.955Z,8.29
2023-05-09T02:51:33.267Z,8.27
2023-05-09T02:53:59.581Z,8.23
2023-05-09T02:56:25.986Z,8.22
2023-05-09T02:58:52.283Z,8.15
2023-05-09T03:01:18.666Z,8.16
2023-05-09T03:03:46.116Z,8.08
2023-05-09T03:06:12.481Z,8.09
2023-05-09T03:08:38.785Z,8.12
2023-05-09T03:11:05.803Z,8.11
2023-05-09T03:13:32.350Z,8.11
2023-05-09T03:15:58.656Z,8.10
2023-05-09T03:18:25.026Z,8.09
2023-05-09T03:20:51.353Z,8.05
2023-05-09T03:23:17.659Z,8.03
2023-05-09T03:25:43.969Z,7.95
2023-05-09T03:28:10.302Z,7.87
2023-05-09T03:30:36.792Z,7.79
2023-05-09T03:33:04.850Z,7.72
2023-05-09T03:35:31.294Z,7.72
2023-05-09T03:37:57.626Z,7.70
2023-05-09T03:40:23.910Z,7.70
2023-05-09T03:42:50.456Z,7.69
2023-05-09T03:45:16.928Z,7.67
2023-05-09T03:47:43.359Z,7.62
2023-05-09T03:50:10.153Z,7.60
2023-05-09T03:52:37.305Z,7.62
2023-05-09T03:55:03.873Z,7.64
2023-05-09T03:57:30.222Z,7.67
2023-05-09T03:59:56.637Z,7.67
2023-05-09T04:02:23.295Z,7.70
2023-05-09T04:04:49.969Z,7.73
2023-05-09T04:07:16.289Z,7.72
2023-05-09T04:09:42.846Z,7.71
2023-05-09T04:12:09.181Z,7.71
2023-05-09T04:14:35.525Z,7.72
2023-05-09T04:17:01.960Z,7.74
2023-05-09T04:19:28.337Z,7.74
2023-05-09T04:21:54.646Z,7.74
2023-05-09T04:24:20.965Z,7.72
2023-05-09T04:26:47.390Z,7.70
2023-05-09T04:29:14.016Z,7.72
2023-05-09T04:31:40.531Z,7.67
2023-05-09T04:34:08.742Z,7.69
2023-05-09T04:36:35.206Z,7.70
2023-05-09T04:39:01.662Z,7.74
2023-05-09T04:41:28.005Z,7.79
2023-05-09T04:43:54.368Z,7.85
2023-05-09T04:46:21.316Z,7.85
2023-05-09T04:48:49.151Z,7.94
2023-05-09T04:51:15.459Z,8.02
2023-05-09T04:53:41.776Z,8.12
2023-05-09T04:56:08.217Z,8.21
2023-05-09T04:58:38.270Z,8.30
2023-05-09T05:01:05.782Z,8.36
2023-05-09T05:03:32.369Z,8.42
2023-05-09T05:05:58.812Z,8.47
2023-05-09T05:08:25.140Z,8.54
2023-05-09T05:10:51.575Z,8.60
2023-05-09T05:13:17.883Z,8.68
2023-05-09T05:15:44.239Z,8.74
2023-05-09T05:18:10.656Z,8.80
2023-05-09T05:20:36.994Z,8.94
2023-05-09T05:23:03.300Z,9.02
2023-05-09T05:25:29.657Z,9.01
2023-05-09T05:27:55.989Z,9.08
2023-05-09T05:30:22.298Z,9.16
2023-05-09T05:32:48.731Z,9.25
2023-05-09T05:35:15.346Z,9.31
2023-05-09T05:37:42.224Z,9.36
2023-05-09T05:40:08.781Z,9.45
2023-05-09T05:42:35.351Z,9.52
2023-05-09T05:45:04.381Z,9.64
2023-05-09T05:47:34.117Z,9.79
2023-05-09T05:50:01.545Z,9.78
2023-05-09T05:52:28.122Z,9.88
2023-05-09T05:54:54.775Z,9.95
2023-05-09T05:57:21.082Z,10.13
2023-05-09T05:59:48.335Z,10.30
2023-05-09T06:02:15.314Z,10.42
2023-05-09T06:04:42.032Z,10.36
2023-05-09T06:07:08.364Z,10.52
2023-05-09T06:09:34.790Z,10.59
2023-05-09T06:12:01.408Z,10.64
2023-05-09T06:14:27.857Z,10.82
2023-05-09T06:16:54.798Z,10.98
2023-05-09T06:19:21.504Z,11.02
2023-05-09T06:21:47.832Z,11.25
2023-05-09T06:24:23.422Z,11.30
2023-05-09T06:26:58.440Z,11.35
2023-05-09T06:29:24.743Z,11.23
2023-05-09T06:31:51.128Z,11.37
2023-05-09T06:34:17.493Z,11.38
2023-05-09T06:36:43.897Z,11.50
2023-05-09T06:39:10.291Z,11.63
2023-05-09T06:41:36.645Z,11.69
2023-05-09T06:44:03.056Z,11.75
2023-05-09T06:46:29.532Z,11.83
2023-05-09T06:48:55.963Z,11.91
2023-05-09T06:51:22.286Z,11.99
2023-05-09T06:53:48.763Z,12.16
2023-05-09T06:56:15.177Z,11.97
2023-05-09T06:58:41.508Z,12.08
2023-05-09T07:01:07.958Z,12.07
2023-05-09T07:03:34.360Z,12.25
2023-05-09T07:06:00.671Z,12.35
2023-05-09T07:08:27.185Z,12.64
2023-05-09T07:10:53.536Z,12.54
2023-05-09T07:13:20.007Z,12.75
2023-05-09T07:15:46.449Z,12.78
2023-05-09T07:18:12.866Z,12.85
2023-05-09T07:20:39.264Z,13.09
2023-05-09T07:23:05.936Z,13.29
2023-05-09T07:25:32.353Z,13.26
2023-05-09T07:27:58.786Z,13.36
2023-05-09T07:30:25.452Z,12.98
2023-05-09T07:32:52.302Z,13.29
2023-05-09T07:35:19.103Z,13.46
2023-05-09T07:37:45.400Z,13.42
2023-05-09T07:40:12.158Z,13.55
2023-05-09T07:42:38.718Z,13.71
2023-05-09T07:45:06.182Z,13.68
2023-05-09T07:47:33.102Z,13.59
2023-05-09T07:49:59.467Z,13.62
2023-05-09T07:52:25.780Z,13.82
2023-05-09T07:54:52.191Z,14.10
2023-05-09T07:57:18.605Z,13.95
2023-05-09T07:59:44.907Z,13.95
2023-05-09T08:02:11.284Z,14.18
2023-05-09T08:04:38.274Z,14.34
2023-05-09T08:07:04.913Z,14.23
2023-05-09T08:09:31.222Z,14.42
2023-05-09T08:11:57.636Z,14.42
2023-05-09T08:14:24.009Z,14.32
2023-05-09T08:16:50.441Z,14.61
2023-05-09T08:19:16.840Z,14.53
2023-05-09T08:21:43.183Z,14.65
2023-05-09T08:24:09.685Z,14.75
2023-05-09T08:26:36.137Z,14.95
2023-05-09T08:29:02.482Z,14.83
2023-05-09T08:31:29.003Z,14.99
2023-05-09T08:33:55.356Z,15.09
2023-05-09T08:36:21.726Z,15.27
2023-05-09T08:38:48.079Z,15.45
2023-05-09T08:41:14.553Z,15.51
2023-05-09T08:43:41.651Z,15.63
2023-05-09T08:46:09.365Z,15.66
2023-05-09T08:48:38.791Z,15.93
2023-05-09T08:51:06.010Z,15.94
2023-05-09T08:53:33.002Z,15.91
2023-05-09T08:56:00.459Z,16.10
2023-05-09T08:58:27.038Z,16.07
2023-05-09T09:00:55.485Z,16.10
2023-05-09T09:03:23.263Z,16.07
2023-05-09T09:05:51.204Z,16.33
2023-05-09T09:08:17.947Z,16.62
2023-05-09T09:10:47.557Z,16.65
2023-05-09T09:13:15.148Z,16.50
2023-05-09T09:15:43.451Z,16.50
2023-05-09T09:18:11.574Z,16.42
2023-05-09T09:20:41.016Z,16.56
2023-05-09T09:23:10.473Z,16.54
2023-05-09T09:25:37.037Z,16.93
2023-05-09T09:28:04.075Z,17.12
2023-05-09T09:30:30.490Z,17.32
2023-05-09T09:32:58.738Z,17.47
2023-05-09T09:35:25.115Z,17.70
2023-05-09T09:37:57.856Z,17.73
2023-05-09T09:40:25.586Z,17.59
2023-05-09T09:42:52.220Z,17.44
2023-05-09T09:45:19.587Z,17.47
2023-05-09T09:47:46.942Z,17.46
2023-05-09T09:50:14.669Z,17.64
2023-05-09T09:52:51.527Z,17.91
2023-05-09T09:55:18.735Z,18.09
2023-05-09T09:57:46.123Z,18.05
2023-05-09T10:00:13.834Z,18.44
2023-05-09T10:02:47.205Z,18.25
2023-05-09T10:05:18.578Z,18.38
2023-05-09T10:07:45.310Z,18.26
2023-05-09T10:10:11.789Z,18.27
2023-05-09T10:12:39.468Z,18.28
2023-05-09T10:15:09.061Z,18.57
2023-05-09T10:17:35.441Z,18.60
2023-05-09T10:20:02.811Z,18.35
2023-05-09T10:22:29.822Z,18.55
2023-05-09T10:25:01.568Z,18.66
2023-05-09T10:27:28.966Z,18.62
2023-05-09T10:30:07.651Z,18.66
2023-05-09T10:32:36.821Z,19.01
2023-05-09T10:35:05.909Z,19.27
2023-05-09T10:37:33.413Z,19.38
2023-05-09T10:40:01.408Z,19.40
2023-05-09T10:42:28.985Z,19.41
2023-05-09T10:44:56.314Z,19.09
2023-05-09T10:47:23.774Z,19.29
2023-05-09T10:49:50.144Z,19.44
2023-05-09T10:52:16.925Z,19.64
2023-05-09T10:54:43.289Z,20.42
2023-05-09T10:57:09.746Z,21.09
2023-05-09T10:59:40.794Z,22.08
2023-05-09T11:02:14.198Z,23.00
2023-05-09T11:04:41.085Z,23.27
2023-05-09T11:07:24.298Z,23.54
2023-05-09T11:10:07.576Z,23.68
2023-05-09T11:12:33.926Z,23.80
2023-05-09T11:15:07.721Z,23.97
2023-05-09T11:17:37.719Z,24.27
2023-05-09T11:20:08.125Z,24.52
2023-05-09T11:22:42.024Z,23.99
2023-05-09T11:25:11.157Z,23.88
2023-05-09T11:27:37.457Z,23.85
2023-05-09T11:30:06.024Z,23.79
2023-05-09T11:32:32.861Z,24.55
2023-05-09T11:35:15.822Z,25.14
2023-05-09T11:37:55.027Z,24.47
2023-05-09T11:40:22.108Z,24.05
2023-05-09T11:42:50.133Z,23.80
2023-05-09T11:45:17.470Z,24.36
2023-05-09T11:47:45.124Z,24.34
2023-05-09T11:50:12.833Z,24.53
2023-05-09T11:52:40.054Z,24.65
2023-05-09T11:55:13.315Z,24.83
2023-05-09T11:57:40.821Z,24.46
2023-05-09T12:00:09.366Z,25.01
2023-05-09T12:02:36.247Z,25.07
2023-05-09T12:05:32.250Z,24.52
2023-05-09T12:08:02.407Z,24.83
2023-05-09T12:10:28.731Z,24.61
2023-05-09T12:12:58.072Z,25.20
2023-05-09T12:15:24.555Z,24.50
2023-05-09T12:18:04.618Z,24.39
2023-05-09T12:20:52.730Z,25.19
2023-05-09T12:23:19.288Z,25.38
2023-05-09T12:25:56.025Z,24.76
2023-05-09T12:28:26.097Z,25.02
2023-05-09T12:30:53.503Z,24.90
2023-05-09T12:33:20.165Z,24.98
2023-05-09T12:35:47.428Z,25.47
2023-05-09T12:38:14.577Z,24.61
2023-05-09T12:40:41.201Z,24.98
2023-05-09T12:43:07.564Z,24.65
2023-05-09T12:45:33.946Z,24.93
2023-05-09T12:48:02.387Z,24.79
2023-05-09T12:50:34.688Z,25.08
2023-05-09T12:53:03.318Z,24.52
2023-05-09T12:55:31.057Z,24.75
2023-05-09T12:58:01.902Z,25.07
2023-05-09T13:00:28.536Z,25.54
2023-05-09T13:02:55.417Z,25.46
2023-05-09T13:05:22.442Z,25.19
2023-05-09T13:07:51.154Z,24.81
2023-05-09T13:10:24.215Z,24.32
2023-05-09T13:12:51.440Z,23.98
2023-05-09T13:15:22.945Z,23.87
2023-05-09T13:17:50.613Z,23.55
2023-05-09T13:20:17.583Z,23.80
2023-05-09T13:22:44.961Z,24.38
2023-05-09T13:25:11.527Z,24.46
2023-05-09T13:27:38.049Z,24.44
2023-05-09T13:30:07.509Z,24.50
2023-05-09T13:32:34.370Z,24.15
2023-05-09T13:35:00.748Z,24.55
2023-05-09T13:37:28.185Z,24.00
2023-05-09T13:39:54.949Z,24.72
2023-05-09T13:42:21.400Z,25.12
2023-05-09T13:44:47.770Z,25.61
2023-05-09T13:47:14.179Z,25.33
2023-05-09T13:49:40.501Z,25.16
2023-05-09T13:52:06.924Z,25.71
2023-05-09T13:54:35.085Z,24.58
2023-05-09T13:57:04.842Z,25.27
2023-05-09T13:59:31.530Z,23.77
2023-05-09T14:01:59.664Z,24.25
2023-05-09T14:04:27.494Z,24.26
2023-05-09T14:06:54.242Z,23.72
2023-05-09T14:09:22.252Z,23.78
2023-05-09T14:11:51.607Z,24.19
2023-05-09T14:14:21.551Z,23.72
2023-05-09T14:16:48.344Z,23.67
2023-05-09T14:19:15.521Z,23.96
2023-05-09T14:21:51.349Z,24.12
2023-05-09T14:24:17.663Z,24.25
2023-05-09T14:26:44.153Z,23.96
2023-05-09T14:29:10.901Z,24.14
2023-05-09T14:31:37.577Z,23.62
2023-05-09T14:34:05.190Z,23.74
2023-05-09T14:36:32.441Z,23.61
2023-05-09T14:38:58.860Z,23.81
2023-05-09T14:41:25.251Z,23.22
2023-05-09T14:43:52.322Z,23.30
2023-05-09T14:46:18.859Z,23.10
2023-05-09T14:48:45.348Z,23.28
2023-05-09T14:51:11.911Z,23.47
2023-05-09T14:53:41.591Z,23.26
2023-05-09T14:56:08.415Z,23.15
2023-05-09T14:58:34.903Z,23.19
2023-05-09T15:01:04.324Z,23.37
2023-05-09T15:03:30.755Z,23.20
2023-05-09T15:05:58.625Z,23.35
2023-05-09T15:08:25.020Z,22.39
2023-05-09T15:10:51.357Z,22.68
2023-05-09T15:13:17.798Z,22.53
2023-05-09T15:15:44.170Z,22.85
2023-05-09T15:18:10.569Z,22.75
2023-05-09T15:20:37.063Z,22.48
2023-05-09T15:23:04.254Z,22.19
2023-05-09T15:25:30.958Z,22.13
2023-05-09T15:27:57.506Z,22.01
2023-05-09T15:30:23.842Z,21.75
2023-05-09T15:32:50.577Z,21.61
2023-05-09T15:35:18.932Z,21.35
2023-05-09T15:37:45.503Z,21.05
2023-05-09T15:40:11.943Z,20.91
2023-05-09T15:42:38.390Z,20.89
2023-05-09T15:45:04.892Z,20.87
2023-05-09T15:47:31.525Z,20.92
2023-05-09T15:49:58.053Z,20.76
2023-05-09T15:52:24.565Z,20.81
2023-05-09T15:54:51.090Z,20.77
2023-05-09T15:57:18.227Z,20.63
2023-05-09T15:59:44.645Z,20.61
2023-05-09T16:02:12.382Z,20.58
2023-05-09T16:04:38.824Z,20.63
2023-05-09T16:07:05.206Z,20.52
2023-05-09T16:09:32.897Z,20.28
2023-05-09T16:11:59.730Z,20.20
2023-05-09T16:14:26.078Z,20.11
2023-05-09T16:16:53.789Z,20.13
2023-05-09T16:19:20.258Z,20.22
2023-05-09T16:21:46.675Z,20.10
2023-05-09T16:24:13.149Z,20.23
2023-05-09T16:26:39.519Z,20.30
2023-05-09T16:29:05.846Z,20.41
2023-05-09T16:31:34.781Z,20.37
2023-05-09T16:34:02.026Z,20.65
2023-05-09T16:36:29.838Z,20.83
2023-05-09T16:38:56.175Z,21.09
2023-05-09T16:41:22.921Z,21.01
2023-05-09T16:43:49.399Z,21.12
2023-05-09T16:46:16.329Z,21.16
2023-05-09T16:48:42.814Z,21.44
2023-05-09T16:51:10.067Z,21.24
2023-05-09T16:53:45.697Z,20.98
2023-05-09T16:56:12.262Z,20.67
2023-05-09T16:58:38.724Z,20.55
2023-05-09T17:01:05.534Z,20.45
2023-05-09T17:03:31.985Z,20.49
2023-05-09T17:05:58.393Z,20.37
2023-05-09T17:08:24.730Z,20.24
2023-05-09T17:10:51.111Z,20.02
2023-05-09T17:13:17.555Z,19.63
2023-05-09T17:15:44.386Z,19.56
2023-05-09T17:18:12.308Z,19.45
2023-05-09T17:20:40.047Z,19.26
2023-05-09T17:23:06.422Z,19.14
2023-05-09T17:25:33.499Z,18.95
2023-05-09T17:27:59.821Z,18.69
2023-05-09T17:30:26.232Z,18.57
2023-05-09T17:32:52.684Z,18.49
2023-05-09T17:35:20.732Z,18.38
2023-05-09T17:37:47.078Z,18.27
2023-05-09T17:40:13.818Z,18.12
2023-05-09T17:42:40.590Z,18.00
2023-05-09T17:45:10.679Z,17.80
2023-05-09T17:47:37.636Z,17.73
2023-05-09T17:50:04.384Z,17.69
2023-05-09T17:52:30.894Z,17.61
2023-05-09T17:54:57.243Z,17.56
2023-05-09T17:57:23.602Z,17.47
2023-05-09T17:59:51.708Z,17.37
2023-05-09T18:02:23.730Z,17.26
2023-05-09T18:04:51.014Z,17.20
2023-05-09T18:07:17.387Z,17.15
2023-05-09T18:09:43.799Z,17.11
2023-05-09T18:12:10.142Z,17.01
2023-05-09T18:14:36.504Z,16.96
2023-05-09T18:17:02.932Z,16.85
2023-05-09T18:19:29.335Z,16.78
2023-05-09T18:21:55.808Z,16.65
2023-05-09T18:24:23.215Z,16.55
2023-05-09T18:26:49.697Z,16.50
2023-05-09T18:29:17.143Z,16.46
2023-05-09T18:31:43.602Z,16.35
2023-05-09T18:34:09.988Z,16.28
2023-05-09T18:36:36.324Z,16.19
2023-05-09T18:39:02.632Z,16.13
2023-05-09T18:41:33.771Z,16.08
2023-05-09T18:44:00.130Z,16.03
2023-05-09T18:46:28.007Z,15.94
2023-05-09T18:48:54.727Z,15.84
2023-05-09T18:51:21.462Z,15.70
2023-05-09T18:53:47.931Z,15.61
2023-05-09T18:56:14.337Z,15.48
2023-05-09T18:58:40.720Z,15.38
2023-05-09T19:01:11.309Z,15.30
2023-05-09T19:03:43.506Z,15.24
2023-05-09T19:06:10.595Z,15.16
2023-05-09T19:08:37.368Z,15.09
2023-05-09T19:11:03.802Z,15.05
2023-05-09T19:13:33.161Z,14.98
2023-05-09T19:15:59.713Z,14.87
2023-05-09T19:18:26.443Z,14.78
2023-05-09T19:20:52.822Z,14.69
2023-05-09T19:23:20.324Z,14.64
2023-05-09T19:25:46.765Z,14.65
2023-05-09T19:28:14.526Z,14.60
2023-05-09T19:30:40.875Z,14.57
2023-05-09T19:33:07.413Z,14.50
2023-05-09T19:35:33.737Z,14.46
2023-05-09T19:38:00.149Z,14.39
2023-05-09T19:40:26.498Z,14.39
2023-05-09T19:42:52.846Z,14.34
2023-05-09T19:45:19.382Z,14.32
2023-05-09T19:47:45.763Z,14.28
2023-05-09T19:50:12.289Z,14.21
2023-05-09T19:52:38.672Z,14.22
2023-05-09T19:55:06.420Z,14.24
2023-05-09T19:57:33.215Z,14.21
2023-05-09T19:59:59.548Z,14.17
2023-05-09T20:02:26.358Z,14.08
2023-05-09T20:04:54.173Z,14.09
2023-05-09T20:07:20.768Z,14.11
2023-05-09T20:09:47.443Z,14.04
2023-05-09T20:12:14.326Z,14.03
2023-05-09T20:14:40.748Z,14.01
2023-05-09T20:17:09.946Z,14.00
2023-05-09T20:19:36.904Z,13.98
2023-05-09T20:22:03.787Z,13.93
2023-05-09T20:24:33.232Z,13.94
2023-05-09T20:26:59.649Z,13.94
2023-05-09T20:29:26.158Z,13.91
2023-05-09T20:31:52.724Z,13.91
2023-05-09T20:34:20.853Z,13.87
2023-05-09T20:36:50.744Z,13.92
2023-05-09T20:39:17.786Z,13.86
2023-05-09T20:41:47.780Z,13.86
2023-05-09T20:44:14.591Z,13.84
2023-05-09T20:46:40.963Z,13.82
2023-05-09T20:49:07.712Z,13.82
2023-05-09T20:51:34.067Z,13.78
2023-05-09T20:54:00.693Z,13.75
2023-05-09T20:56:28.621Z,13.75
2023-05-09T20:58:55.428Z,13.74
2023-05-09T21:01:22.034Z,13.74
2023-05-09T21:03:48.433Z,13.72
2023-05-09T21:06:14.759Z,13.68
2023-05-09T21:08:41.959Z,13.65
2023-05-09T21:11:08.291Z,13.59
2023-05-09T21:13:34.801Z,13.51
2023-05-09T21:16:01.132Z,13.45
2023-05-09T21:18:27.564Z,13.42
2023-05-09T21:20:53.997Z,13.37
2023-05-09T21:23:20.995Z,13.32
2023-05-09T21:25:47.361Z,13.23
2023-05-09T21:28:15.460Z,13.18
2023-05-09T21:30:41.813Z,13.11
2023-05-09T21:33:08.211Z,13.07
2023-05-09T21:35:34.578Z,13.06
2023-05-09T21:38:00.890Z,13.06
2023-05-09T21:40:27.231Z,13.00
2023-05-09T21:42:53.602Z,12.99
2023-05-09T21:45:19.920Z,12.93
2023-05-09T21:47:46.346Z,12.90
2023-05-09T21:50:12.671Z,12.88
2023-05-09T21:52:39.079Z,12.79
2023-05-09T21:55:05.656Z,12.72
2023-05-09T21:57:31.984Z,12.73
2023-05-09T22:00:01.279Z,12.69
2023-05-09T22:02:31.282Z,12.73
2023-05-09T22:04:57.786Z,12.70
2023-05-09T22:07:24.120Z,12.73
2023-05-09T22:09:50.556Z,12.70
2023-05-09T22:12:17.061Z,12.70
2023-05-09T22:14:53.006Z,12.60
2023-05-09T22:17:22.477Z,12.58
2023-05-09T22:19:48.868Z,12.56
2023-05-09T22:22:15.240Z,12.52
2023-05-09T22:24:41.948Z,12.42
2023-05-09T22:27:08.823Z,12.42
2023-05-09T22:29:35.506Z,12.33
2023-05-09T22:32:02.509Z,12.29
2023-05-09T22:34:28.898Z,12.27
2023-05-09T22:36:55.337Z,12.24
2023-05-09T22:39:21.967Z,12.14
2023-05-09T22:41:48.399Z,12.10
2023-05-09T22:44:14.816Z,12.04
2023-05-09T22:46:41.174Z,12.07
2023-05-09T22:49:07.577Z,12.03
2023-05-09T22:51:33.967Z,12.03
2023-05-09T22:54:00.307Z,12.06
2023-05-09T22:56:27.307Z,12.07
2023-05-09T22:58:53.654Z,12.07
2023-05-09T23:01:20.141Z,12.02
2023-05-09T23:03:46.614Z,12.00
2023-05-09T23:06:12.973Z,11.93
2023-05-09T23:08:39.316Z,11.87
2023-05-09T23:11:05.706Z,11.85
2023-05-09T23:13:32.484Z,11.77
2023-05-09T23:15:58.907Z,11.77
2023-05-09T23:18:25.766Z,11.73
2023-05-09T23:20:52.113Z,11.70
2023-05-09T23:23:28.939Z,11.72
2023-05-09T23:25:55.275Z,11.72
2023-05-09T23:28:24.967Z,11.69
2023-05-09T23:30:51.960Z,11.65
2023-05-09T23:33:18.362Z,11.57
2023-05-09T23:35:44.766Z,11.55
2023-05-09T23:38:11.194Z,11.52
2023-05-09T23:40:38.443Z,11.47
2023-05-09T23:43:04.776Z,11.45
2023-05-09T23:45:31.596Z,11.41
2023-05-09T23:47:57.995Z,11.35
2023-05-09T23:50:24.364Z,11.32
2023-05-09T23:52:51.218Z,11.30
2023-05-09T23:55:17.984Z,11.30
2023-05-09T23:57:44.411Z,11.28
